PWSweather.com
Personal Weather Stations
Station Observations
KFLSTJOH36
Aberdeen Highland Point, Saint Johns, FL 32259

Aberdeen Highland PointSaint Johns, FL 32259

Lat: 30.082981, Lon: -81.59522

Elevation: 60

Station Type: Acurite 5-in-1 Weather Sensor

High Low Average
Temperature 94.5°F34.7°C 72.1°F22.3°C 82.8°F28.2°C
Dew Point 78.2°F25.7°C 70.0°F21.1°C 74.5°F23.6°C
Winds 10.0 mph 16.1 kmh Calm Calm 2.0 mph SSE3.2 kmh SSE
Wind Gusts -- -- --
Humidity 94% 56% 77%
Pressure 30.16 in1021.3 mb 30.02 in1016.6 mb -
Precipitation 0.00 in0.0 mm - -
Hour Temp Dew Point Humidity Winds Wind Gusts Pressure Precip Precip Rate Daily Precip Total
12:00 AM 76.8°F24.9°C 73.0°F22.8°C 88% Calm Calm -- 30.02 in1016.6 mb 0.00 in0.0 mm 0.00 in0.0 mm 0.00 in0.0 mm
12:05 AM 76.8°F24.9°C 73.0°F22.8°C 88% 1.0 mph SE1.6 kmh SE -- 30.02 in1016.6 mb 0.00 in0.0 mm 0.00 in0.0 mm 0.00 in0.0 mm
12:10 AM 76.6°F24.8°C 72.8°F22.7°C 88% 2.0 mph SE3.2 kmh SE -- 30.02 in1016.6 mb 0.00 in0.0 mm 0.00 in0.0 mm 0.00 in0.0 mm
12:15 AM 76.5°F24.7°C 72.6°F22.6°C 88% Calm Calm -- 30.02 in1016.6 mb 0.00 in0.0 mm 0.00 in0.0 mm 0.00 in0.0 mm
12:20 AM 76.5°F24.7°C 73.0°F22.8°C 89% Calm Calm -- 30.02 in1016.6 mb 0.00 in0.0 mm 0.00 in0.0 mm 0.00 in0.0 mm
12:25 AM 76.1°F24.5°C 72.6°F22.6°C 89% Calm Calm -- 30.03 in1016.9 mb 0.00 in0.0 mm 0.00 in0.0 mm 0.00 in0.0 mm
12:35 AM 76.1°F24.5°C 72.6°F22.6°C 89% 2.0 mph SE3.2 kmh SE -- 30.03 in1016.9 mb 0.00 in0.0 mm 0.00 in0.0 mm 0.00 in0.0 mm
12:40 AM 75.9°F24.4°C 72.8°F22.7°C 90% Calm Calm -- 30.03 in1016.9 mb 0.00 in0.0 mm 0.00 in0.0 mm 0.00 in0.0 mm
12:45 AM 75.9°F24.4°C 72.8°F22.7°C 90% Calm Calm -- 30.03 in1016.9 mb 0.00 in0.0 mm 0.00 in0.0 mm 0.00 in0.0 mm
12:50 AM 75.9°F24.4°C 72.8°F22.7°C 90% Calm Calm -- 30.03 in1016.9 mb 0.00 in0.0 mm 0.00 in0.0 mm 0.00 in0.0 mm
12:55 AM 75.7°F24.3°C 72.6°F22.6°C 90% Calm Calm -- 30.03 in1016.9 mb 0.00 in0.0 mm 0.00 in0.0 mm 0.00 in0.0 mm
01:00 AM 75.7°F24.3°C 72.6°F22.6°C 90% 1.0 mph S1.6 kmh S -- 30.03 in1016.9 mb 0.00 in0.0 mm 0.00 in0.0 mm 0.00 in0.0 mm
01:05 AM 75.7°F24.3°C 72.6°F22.6°C 90% 2.0 mph SE3.2 kmh SE -- 30.03 in1016.9 mb 0.00 in0.0 mm 0.00 in0.0 mm 0.00 in0.0 mm
01:10 AM 75.7°F24.3°C 72.6°F22.6°C 90% 1.0 mph SSE1.6 kmh SSE -- 30.03 in1016.9 mb 0.00 in0.0 mm 0.00 in0.0 mm 0.00 in0.0 mm
01:15 AM 75.6°F24.2°C 72.7°F22.6°C 91% 1.0 mph SSE1.6 kmh SSE -- 30.03 in1016.9 mb 0.00 in0.0 mm 0.00 in0.0 mm 0.00 in0.0 mm
01:20 AM 75.6°F24.2°C 72.7°F22.6°C 91% 3.0 mph S4.8 kmh S -- 30.03 in1016.9 mb 0.00 in0.0 mm 0.00 in0.0 mm 0.00 in0.0 mm
01:25 AM 75.6°F24.2°C 72.7°F22.6°C 91% 2.0 mph SE3.2 kmh SE -- 30.03 in1016.9 mb 0.00 in0.0 mm 0.00 in0.0 mm 0.00 in0.0 mm
01:30 AM 75.6°F24.2°C 72.7°F22.6°C 91% 2.0 mph SSE3.2 kmh SSE -- 30.03 in1016.9 mb 0.00 in0.0 mm 0.00 in0.0 mm 0.00 in0.0 mm
01:35 AM 75.6°F24.2°C 72.7°F22.6°C 91% 1.0 mph SSE1.6 kmh SSE -- 30.03 in1016.9 mb 0.00 in0.0 mm 0.00 in0.0 mm 0.00 in0.0 mm
01:40 AM 75.6°F24.2°C 72.7°F22.6°C 91% 2.0 mph SE3.2 kmh SE -- 30.03 in1016.9 mb 0.00 in0.0 mm 0.00 in0.0 mm 0.00 in0.0 mm
01:45 AM 75.6°F24.2°C 72.7°F22.6°C 91% 1.0 mph SSW1.6 kmh SSW -- 30.03 in1016.9 mb 0.00 in0.0 mm 0.00 in0.0 mm 0.00 in0.0 mm
01:50 AM 75.6°F24.2°C 72.7°F22.6°C 91% 2.0 mph S3.2 kmh S -- 30.03 in1016.9 mb 0.00 in0.0 mm 0.00 in0.0 mm 0.00 in0.0 mm
01:55 AM 75.6°F24.2°C 72.7°F22.6°C 91% Calm Calm -- 30.03 in1016.9 mb 0.00 in0.0 mm 0.00 in0.0 mm 0.00 in0.0 mm
02:15 AM 75.4°F24.1°C 72.6°F22.6°C 91% Calm Calm -- 30.03 in1016.9 mb 0.00 in0.0 mm 0.00 in0.0 mm 0.00 in0.0 mm
02:20 AM 75.4°F24.1°C 72.6°F22.6°C 91% Calm Calm -- 30.02 in1016.6 mb 0.00 in0.0 mm 0.00 in0.0 mm 0.00 in0.0 mm
02:25 AM 75.2°F24.0°C 72.4°F22.4°C 91% Calm Calm -- 30.03 in1016.9 mb 0.00 in0.0 mm 0.00 in0.0 mm 0.00 in0.0 mm
02:30 AM 74.8°F23.8°C 72.0°F22.2°C 91% Calm Calm -- 30.03 in1016.9 mb 0.00 in0.0 mm 0.00 in0.0 mm 0.00 in0.0 mm
02:35 AM 74.8°F23.8°C 72.3°F22.4°C 92% Calm Calm -- 30.03 in1016.9 mb 0.00 in0.0 mm 0.00 in0.0 mm 0.00 in0.0 mm
02:45 AM 74.8°F23.8°C 72.3°F22.4°C 92% Calm Calm -- 30.03 in1016.9 mb 0.00 in0.0 mm 0.00 in0.0 mm 0.00 in0.0 mm
02:50 AM 74.7°F23.7°C 72.2°F22.3°C 92% Calm Calm -- 30.03 in1016.9 mb 0.00 in0.0 mm 0.00 in0.0 mm 0.00 in0.0 mm
02:55 AM 74.5°F23.6°C 72.0°F22.2°C 92% Calm Calm -- 30.03 in1016.9 mb 0.00 in0.0 mm 0.00 in0.0 mm 0.00 in0.0 mm
03:20 AM 74.3°F23.5°C 71.8°F22.1°C 92% Calm Calm -- 30.03 in1016.9 mb 0.00 in0.0 mm 0.00 in0.0 mm 0.00 in0.0 mm
03:30 AM 74.5°F23.6°C 72.0°F22.2°C 92% Calm Calm -- 30.04 in1017.3 mb 0.00 in0.0 mm 0.00 in0.0 mm 0.00 in0.0 mm
03:35 AM 74.7°F23.7°C 72.2°F22.3°C 92% Calm Calm -- 30.04 in1017.3 mb 0.00 in0.0 mm 0.00 in0.0 mm 0.00 in0.0 mm
03:40 AM 74.8°F23.8°C 72.3°F22.4°C 92% Calm Calm -- 30.04 in1017.3 mb 0.00 in0.0 mm 0.00 in0.0 mm 0.00 in0.0 mm
03:45 AM 75.0°F23.9°C 72.5°F22.5°C 92% Calm Calm -- 30.04 in1017.3 mb 0.00 in0.0 mm 0.00 in0.0 mm 0.00 in0.0 mm
03:50 AM 75.2°F24.0°C 72.7°F22.6°C 92% Calm Calm -- 30.04 in1017.3 mb 0.00 in0.0 mm 0.00 in0.0 mm 0.00 in0.0 mm
03:55 AM 75.4°F24.1°C 72.9°F22.7°C 92% Calm Calm -- 30.05 in1017.6 mb 0.00 in0.0 mm 0.00 in0.0 mm 0.00 in0.0 mm
04:00 AM 75.6°F24.2°C 73.1°F22.8°C 92% Calm Calm -- 30.05 in1017.6 mb 0.00 in0.0 mm 0.00 in0.0 mm 0.00 in0.0 mm
04:05 AM 75.7°F24.3°C 73.2°F22.9°C 92% 1.0 mph S1.6 kmh S -- 30.05 in1017.6 mb 0.00 in0.0 mm 0.00 in0.0 mm 0.00 in0.0 mm
04:10 AM 75.7°F24.3°C 73.2°F22.9°C 92% Calm Calm -- 30.05 in1017.6 mb 0.00 in0.0 mm 0.00 in0.0 mm 0.00 in0.0 mm
04:15 AM 75.9°F24.4°C 73.4°F23.0°C 92% Calm Calm -- 30.05 in1017.6 mb 0.00 in0.0 mm 0.00 in0.0 mm 0.00 in0.0 mm
04:20 AM 75.7°F24.3°C 73.2°F22.9°C 92% Calm Calm -- 30.06 in1017.9 mb 0.00 in0.0 mm 0.00 in0.0 mm 0.00 in0.0 mm
04:25 AM 75.9°F24.4°C 73.4°F23.0°C 92% Calm Calm -- 30.05 in1017.6 mb 0.00 in0.0 mm 0.00 in0.0 mm 0.00 in0.0 mm
04:30 AM 75.9°F24.4°C 73.4°F23.0°C 92% Calm Calm -- 30.06 in1017.9 mb 0.00 in0.0 mm 0.00 in0.0 mm 0.00 in0.0 mm
04:35 AM 76.1°F24.5°C 73.6°F23.1°C 92% Calm Calm -- 30.05 in1017.6 mb 0.00 in0.0 mm 0.00 in0.0 mm 0.00 in0.0 mm
04:40 AM 76.1°F24.5°C 73.6°F23.1°C 92% Calm Calm -- 30.06 in1017.9 mb 0.00 in0.0 mm 0.00 in0.0 mm 0.00 in0.0 mm
04:45 AM 76.1°F24.5°C 73.6°F23.1°C 92% Calm Calm -- 30.06 in1017.9 mb 0.00 in0.0 mm 0.00 in0.0 mm 0.00 in0.0 mm
04:50 AM 75.9°F24.4°C 73.4°F23.0°C 92% Calm Calm -- 30.06 in1017.9 mb 0.00 in0.0 mm 0.00 in0.0 mm 0.00 in0.0 mm
06:30 AM 76.6°F24.8°C 73.8°F23.2°C 91% Calm Calm -- 30.08 in1018.6 mb 0.00 in0.0 mm 0.00 in0.0 mm 0.00 in0.0 mm
06:35 AM 76.6°F24.8°C 73.8°F23.2°C 91% 3.0 mph SSE4.8 kmh SSE -- 30.09 in1019.0 mb 0.00 in0.0 mm 0.00 in0.0 mm 0.00 in0.0 mm
06:40 AM 76.8°F24.9°C 74.0°F23.3°C 91% 2.0 mph SSE3.2 kmh SSE -- 30.09 in1019.0 mb 0.00 in0.0 mm 0.00 in0.0 mm 0.00 in0.0 mm
06:45 AM 77.0°F25.0°C 73.8°F23.2°C 90% Calm Calm -- 30.09 in1019.0 mb 0.00 in0.0 mm 0.00 in0.0 mm 0.00 in0.0 mm
06:50 AM 77.0°F25.0°C 73.8°F23.2°C 90% Calm Calm -- 30.09 in1019.0 mb 0.00 in0.0 mm 0.00 in0.0 mm 0.00 in0.0 mm
06:55 AM 77.2°F25.1°C 74.0°F23.3°C 90% 1.0 mph SSE1.6 kmh SSE -- 30.09 in1019.0 mb 0.00 in0.0 mm 0.00 in0.0 mm 0.00 in0.0 mm
07:00 AM 77.5°F25.3°C 74.4°F23.6°C 90% 2.0 mph SSW3.2 kmh SSW -- 30.09 in1019.0 mb 0.00 in0.0 mm 0.00 in0.0 mm 0.00 in0.0 mm
07:05 AM 78.1°F25.6°C 74.9°F23.8°C 90% 1.0 mph S1.6 kmh S -- 30.09 in1019.0 mb 0.00 in0.0 mm 0.00 in0.0 mm 0.00 in0.0 mm
07:10 AM 78.4°F25.8°C 74.9°F23.8°C 89% Calm Calm -- 30.09 in1019.0 mb 0.00 in0.0 mm 0.00 in0.0 mm 0.00 in0.0 mm
07:15 AM 79.2°F26.2°C 74.9°F23.8°C 87% Calm Calm -- 30.10 in1019.3 mb 0.00 in0.0 mm 0.00 in0.0 mm 0.00 in0.0 mm
07:20 AM 79.2°F26.2°C 74.9°F23.8°C 87% 2.0 mph S3.2 kmh S -- 30.09 in1019.0 mb 0.00 in0.0 mm 0.00 in0.0 mm 0.00 in0.0 mm
07:25 AM 79.2°F26.2°C 74.9°F23.8°C 87% 3.0 mph SSE4.8 kmh SSE -- 30.10 in1019.3 mb 0.00 in0.0 mm 0.00 in0.0 mm 0.00 in0.0 mm
07:30 AM 79.2°F26.2°C 74.9°F23.8°C 87% Calm Calm -- 30.10 in1019.3 mb 0.00 in0.0 mm 0.00 in0.0 mm 0.00 in0.0 mm
07:35 AM 79.5°F26.4°C 75.3°F24.1°C 87% Calm Calm -- 30.10 in1019.3 mb 0.00 in0.0 mm 0.00 in0.0 mm 0.00 in0.0 mm
07:40 AM 79.5°F26.4°C 75.0°F23.9°C 86% 1.0 mph SSW1.6 kmh SSW -- 30.10 in1019.3 mb 0.00 in0.0 mm 0.00 in0.0 mm 0.00 in0.0 mm
07:45 AM 80.2°F26.8°C 75.7°F24.3°C 86% 4.0 mph SSE6.4 kmh SSE -- 30.10 in1019.3 mb 0.00 in0.0 mm 0.00 in0.0 mm 0.00 in0.0 mm
07:50 AM 80.8°F27.1°C 75.8°F24.3°C 85% Calm Calm -- 30.10 in1019.3 mb 0.00 in0.0 mm 0.00 in0.0 mm 0.00 in0.0 mm
07:55 AM 81.1°F27.3°C 75.5°F24.2°C 83% 3.0 mph SSW4.8 kmh SSW -- 30.10 in1019.3 mb 0.00 in0.0 mm 0.00 in0.0 mm 0.00 in0.0 mm
08:00 AM 81.9°F27.7°C 76.2°F24.6°C 83% 1.0 mph S1.6 kmh S -- 30.11 in1019.6 mb 0.00 in0.0 mm 0.00 in0.0 mm 0.00 in0.0 mm
08:05 AM 80.2°F26.8°C 75.3°F24.1°C 85% 1.0 mph SSW1.6 kmh SSW -- 30.11 in1019.6 mb 0.00 in0.0 mm 0.00 in0.0 mm 0.00 in0.0 mm
08:10 AM 80.8°F27.1°C 75.5°F24.2°C 84% 2.0 mph S3.2 kmh S -- 30.11 in1019.6 mb 0.00 in0.0 mm 0.00 in0.0 mm 0.00 in0.0 mm
08:15 AM 81.0°F27.2°C 75.7°F24.3°C 84% 2.0 mph S3.2 kmh S -- 30.11 in1019.6 mb 0.00 in0.0 mm 0.00 in0.0 mm 0.00 in0.0 mm
08:20 AM 82.6°F28.1°C 75.8°F24.3°C 80% 4.0 mph SW6.4 kmh SW -- 30.11 in1019.6 mb 0.00 in0.0 mm 0.00 in0.0 mm 0.00 in0.0 mm
08:25 AM 82.6°F28.1°C 75.8°F24.3°C 80% 2.0 mph SW3.2 kmh SW -- 30.11 in1019.6 mb 0.00 in0.0 mm 0.00 in0.0 mm 0.00 in0.0 mm
08:30 AM 82.2°F27.9°C 75.4°F24.1°C 80% 2.0 mph S3.2 kmh S -- 30.12 in1020.0 mb 0.00 in0.0 mm 0.00 in0.0 mm 0.00 in0.0 mm
08:35 AM 81.7°F27.6°C 75.6°F24.2°C 82% 1.0 mph SW1.6 kmh SW -- 30.12 in1020.0 mb 0.00 in0.0 mm 0.00 in0.0 mm 0.00 in0.0 mm
08:40 AM 82.0°F27.8°C 75.6°F24.2°C 81% 1.0 mph S1.6 kmh S -- 30.12 in1020.0 mb 0.00 in0.0 mm 0.00 in0.0 mm 0.00 in0.0 mm
08:45 AM 81.1°F27.3°C 75.5°F24.2°C 83% 2.0 mph SSW3.2 kmh SSW -- 30.12 in1020.0 mb 0.00 in0.0 mm 0.00 in0.0 mm 0.00 in0.0 mm
08:50 AM 81.3°F27.4°C 75.7°F24.3°C 83% 2.0 mph SSW3.2 kmh SSW -- 30.12 in1020.0 mb 0.00 in0.0 mm 0.00 in0.0 mm 0.00 in0.0 mm
08:55 AM 82.0°F27.8°C 76.0°F24.4°C 82% 6.0 mph S9.7 kmh S -- 30.12 in1020.0 mb 0.00 in0.0 mm 0.00 in0.0 mm 0.00 in0.0 mm
09:00 AM 82.2°F27.9°C 75.8°F24.3°C 81% 3.0 mph SSE4.8 kmh SSE -- 30.13 in1020.3 mb 0.00 in0.0 mm 0.00 in0.0 mm 0.00 in0.0 mm
09:05 AM 82.0°F27.8°C 75.6°F24.2°C 81% 2.0 mph SSW3.2 kmh SSW -- 30.12 in1020.0 mb 0.00 in0.0 mm 0.00 in0.0 mm 0.00 in0.0 mm
09:10 AM 82.9°F28.3°C 76.1°F24.5°C 80% 3.0 mph S4.8 kmh S -- 30.13 in1020.3 mb 0.00 in0.0 mm 0.00 in0.0 mm 0.00 in0.0 mm
09:15 AM 83.5°F28.6°C 76.3°F24.6°C 79% 2.0 mph S3.2 kmh S -- 30.13 in1020.3 mb 0.00 in0.0 mm 0.00 in0.0 mm 0.00 in0.0 mm
09:20 AM 84.0°F28.9°C 76.4°F24.7°C 78% 2.0 mph S3.2 kmh S -- 30.13 in1020.3 mb 0.00 in0.0 mm 0.00 in0.0 mm 0.00 in0.0 mm
09:25 AM 84.6°F29.2°C 76.2°F24.6°C 76% 1.0 mph SE1.6 kmh SE -- 30.13 in1020.3 mb 0.00 in0.0 mm 0.00 in0.0 mm 0.00 in0.0 mm
09:30 AM 84.2°F29.0°C 76.2°F24.6°C 77% 4.0 mph S6.4 kmh S -- 30.13 in1020.3 mb 0.00 in0.0 mm 0.00 in0.0 mm 0.00 in0.0 mm
09:35 AM 84.7°F29.3°C 76.3°F24.6°C 76% 6.0 mph S9.7 kmh S -- 30.13 in1020.3 mb 0.00 in0.0 mm 0.00 in0.0 mm 0.00 in0.0 mm
09:40 AM 85.8°F29.9°C 76.6°F24.8°C 74% 2.0 mph S3.2 kmh S -- 30.13 in1020.3 mb 0.00 in0.0 mm 0.00 in0.0 mm 0.00 in0.0 mm
09:45 AM 86.7°F30.4°C 77.0°F25.0°C 73% 4.0 mph SSE6.4 kmh SSE -- 30.13 in1020.3 mb 0.00 in0.0 mm 0.00 in0.0 mm 0.00 in0.0 mm
09:50 AM 86.5°F30.3°C 76.5°F24.7°C 72% 1.0 mph W1.6 kmh W -- 30.13 in1020.3 mb 0.00 in0.0 mm 0.00 in0.0 mm 0.00 in0.0 mm
09:55 AM 87.3°F30.7°C 76.3°F24.6°C 70% 3.0 mph S4.8 kmh S -- 30.13 in1020.3 mb 0.00 in0.0 mm 0.00 in0.0 mm 0.00 in0.0 mm
10:00 AM 88.2°F31.2°C 77.2°F25.1°C 70% 3.0 mph S4.8 kmh S -- 30.13 in1020.3 mb 0.00 in0.0 mm 0.00 in0.0 mm 0.00 in0.0 mm
10:05 AM 88.7°F31.5°C 76.8°F24.9°C 68% 4.0 mph SSW6.4 kmh SSW -- 30.13 in1020.3 mb 0.00 in0.0 mm 0.00 in0.0 mm 0.00 in0.0 mm
10:10 AM 88.3°F31.3°C 75.6°F24.2°C 66% 4.0 mph SW6.4 kmh SW -- 30.13 in1020.3 mb 0.00 in0.0 mm 0.00 in0.0 mm 0.00 in0.0 mm
10:15 AM 88.2°F31.2°C 75.8°F24.3°C 67% 4.0 mph WSW6.4 kmh WSW -- 30.13 in1020.3 mb 0.00 in0.0 mm 0.00 in0.0 mm 0.00 in0.0 mm
10:20 AM 88.7°F31.5°C 76.4°F24.7°C 67% 3.0 mph SW4.8 kmh SW -- 30.13 in1020.3 mb 0.00 in0.0 mm 0.00 in0.0 mm 0.00 in0.0 mm
10:25 AM 88.9°F31.6°C 77.0°F25.0°C 68% 5.0 mph SSE8.0 kmh SSE -- 30.13 in1020.3 mb 0.00 in0.0 mm 0.00 in0.0 mm 0.00 in0.0 mm
10:30 AM 89.2°F31.8°C 76.9°F24.9°C 67% 2.0 mph W3.2 kmh W -- 30.13 in1020.3 mb 0.00 in0.0 mm 0.00 in0.0 mm 0.00 in0.0 mm
10:35 AM 90.0°F32.2°C 76.2°F24.6°C 64% 2.0 mph SW3.2 kmh SW -- 30.12 in1020.0 mb 0.00 in0.0 mm 0.00 in0.0 mm 0.00 in0.0 mm
10:40 AM 89.8°F32.1°C 76.5°F24.7°C 65% 1.0 mph W1.6 kmh W -- 30.12 in1020.0 mb 0.00 in0.0 mm 0.00 in0.0 mm 0.00 in0.0 mm
10:45 AM 90.5°F32.5°C 76.2°F24.6°C 63% 4.0 mph ESE6.4 kmh ESE -- 30.12 in1020.0 mb 0.00 in0.0 mm 0.00 in0.0 mm 0.00 in0.0 mm
10:50 AM 90.9°F32.7°C 77.5°F25.3°C 65% 4.0 mph SSW6.4 kmh SSW -- 30.12 in1020.0 mb 0.00 in0.0 mm 0.00 in0.0 mm 0.00 in0.0 mm
10:55 AM 90.7°F32.6°C 77.8°F25.4°C 66% 4.0 mph SSE6.4 kmh SSE -- 30.12 in1020.0 mb 0.00 in0.0 mm 0.00 in0.0 mm 0.00 in0.0 mm
11:00 AM 91.2°F32.9°C 77.4°F25.2°C 64% 4.0 mph S6.4 kmh S -- 30.12 in1020.0 mb 0.00 in0.0 mm 0.00 in0.0 mm 0.00 in0.0 mm
11:05 AM 91.6°F33.1°C 77.7°F25.4°C 64% 4.0 mph WSW6.4 kmh WSW -- 30.12 in1020.0 mb 0.00 in0.0 mm 0.00 in0.0 mm 0.00 in0.0 mm
11:10 AM 91.8°F33.2°C 77.4°F25.2°C 63% 2.0 mph S3.2 kmh S -- 30.12 in1020.0 mb 0.00 in0.0 mm 0.00 in0.0 mm 0.00 in0.0 mm
11:15 AM 92.1°F33.4°C 77.8°F25.4°C 63% 2.0 mph WSW3.2 kmh WSW -- 30.12 in1020.0 mb 0.00 in0.0 mm 0.00 in0.0 mm 0.00 in0.0 mm
11:20 AM 92.5°F33.6°C 77.6°F25.3°C 62% 3.0 mph SSE4.8 kmh SSE -- 30.12 in1020.0 mb 0.00 in0.0 mm 0.00 in0.0 mm 0.00 in0.0 mm
11:25 AM 92.5°F33.6°C 78.1°F25.6°C 63% 2.0 mph SW3.2 kmh SW -- 30.12 in1020.0 mb 0.00 in0.0 mm 0.00 in0.0 mm 0.00 in0.0 mm
11:30 AM 93.0°F33.9°C 78.1°F25.6°C 62% 2.0 mph NNW3.2 kmh NNW -- 30.12 in1020.0 mb 0.00 in0.0 mm 0.00 in0.0 mm 0.00 in0.0 mm
11:35 AM 92.7°F33.7°C 77.3°F25.2°C 61% 2.0 mph SW3.2 kmh SW -- 30.12 in1020.0 mb 0.00 in0.0 mm 0.00 in0.0 mm 0.00 in0.0 mm
11:40 AM 93.6°F34.2°C 77.7°F25.4°C 60% 6.0 mph ENE9.7 kmh ENE -- 30.11 in1019.6 mb 0.00 in0.0 mm 0.00 in0.0 mm 0.00 in0.0 mm
11:45 AM 92.5°F33.6°C 77.6°F25.3°C 62% 3.0 mph ESE4.8 kmh ESE -- 30.11 in1019.6 mb 0.00 in0.0 mm 0.00 in0.0 mm 0.00 in0.0 mm
11:50 AM 93.0°F33.9°C 77.7°F25.4°C 61% 4.0 mph E6.4 kmh E -- 30.11 in1019.6 mb 0.00 in0.0 mm 0.00 in0.0 mm 0.00 in0.0 mm
11:55 AM 92.8°F33.8°C 78.0°F25.6°C 62% 3.0 mph ESE4.8 kmh ESE -- 30.11 in1019.6 mb 0.00 in0.0 mm 0.00 in0.0 mm 0.00 in0.0 mm
12:00 PM 93.2°F34.0°C 77.8°F25.4°C 61% 2.0 mph E3.2 kmh E -- 30.11 in1019.6 mb 0.00 in0.0 mm 0.00 in0.0 mm 0.00 in0.0 mm
12:05 PM 93.0°F33.9°C 77.2°F25.1°C 60% 2.0 mph ENE3.2 kmh ENE -- 30.11 in1019.6 mb 0.00 in0.0 mm 0.00 in0.0 mm 0.00 in0.0 mm
12:10 PM 93.6°F34.2°C 77.7°F25.4°C 60% 4.0 mph NE6.4 kmh NE -- 30.11 in1019.6 mb 0.00 in0.0 mm 0.00 in0.0 mm 0.00 in0.0 mm
12:15 PM 92.8°F33.8°C 77.0°F25.0°C 60% 5.0 mph ENE8.0 kmh ENE -- 30.10 in1019.3 mb 0.00 in0.0 mm 0.00 in0.0 mm 0.00 in0.0 mm
12:20 PM 92.1°F33.4°C 76.8°F24.9°C 61% 3.0 mph ENE4.8 kmh ENE -- 30.10 in1019.3 mb 0.00 in0.0 mm 0.00 in0.0 mm 0.00 in0.0 mm
12:25 PM 92.7°F33.7°C 77.3°F25.2°C 61% 5.0 mph NNE8.0 kmh NNE -- 30.10 in1019.3 mb 0.00 in0.0 mm 0.00 in0.0 mm 0.00 in0.0 mm
12:30 PM 92.5°F33.6°C 76.6°F24.8°C 60% 4.0 mph ENE6.4 kmh ENE -- 30.10 in1019.3 mb 0.00 in0.0 mm 0.00 in0.0 mm 0.00 in0.0 mm
12:35 PM 94.1°F34.5°C 77.7°F25.4°C 59% 4.0 mph E6.4 kmh E -- 30.10 in1019.3 mb 0.00 in0.0 mm 0.00 in0.0 mm 0.00 in0.0 mm
12:40 PM 93.2°F34.0°C 77.8°F25.4°C 61% 2.0 mph W3.2 kmh W -- 30.10 in1019.3 mb 0.00 in0.0 mm 0.00 in0.0 mm 0.00 in0.0 mm
12:45 PM 94.5°F34.7°C 78.0°F25.6°C 59% 3.0 mph NE4.8 kmh NE -- 30.10 in1019.3 mb 0.00 in0.0 mm 0.00 in0.0 mm 0.00 in0.0 mm
12:50 PM 93.0°F33.9°C 77.2°F25.1°C 60% 3.0 mph ESE4.8 kmh ESE -- 30.10 in1019.3 mb 0.00 in0.0 mm 0.00 in0.0 mm 0.00 in0.0 mm
12:55 PM 92.1°F33.4°C 77.3°F25.2°C 62% 2.0 mph SSW3.2 kmh SSW -- 30.09 in1019.0 mb 0.00 in0.0 mm 0.00 in0.0 mm 0.00 in0.0 mm
01:00 PM 94.1°F34.5°C 78.2°F25.7°C 60% 2.0 mph SE3.2 kmh SE -- 30.09 in1019.0 mb 0.00 in0.0 mm 0.00 in0.0 mm 0.00 in0.0 mm
01:05 PM 94.1°F34.5°C 77.2°F25.1°C 58% 3.0 mph ESE4.8 kmh ESE -- 30.09 in1019.0 mb 0.00 in0.0 mm 0.00 in0.0 mm 0.00 in0.0 mm
01:10 PM 93.4°F34.1°C 77.5°F25.3°C 60% 2.0 mph E3.2 kmh E -- 30.09 in1019.0 mb 0.00 in0.0 mm 0.00 in0.0 mm 0.00 in0.0 mm
01:15 PM 91.6°F33.1°C 76.8°F24.9°C 62% 1.0 mph E1.6 kmh E -- 30.09 in1019.0 mb 0.00 in0.0 mm 0.00 in0.0 mm 0.00 in0.0 mm
01:20 PM 93.9°F34.4°C 77.5°F25.3°C 59% 2.0 mph SSW3.2 kmh SSW -- 30.08 in1018.6 mb 0.00 in0.0 mm 0.00 in0.0 mm 0.00 in0.0 mm
01:25 PM 93.2°F34.0°C 77.3°F25.2°C 60% 3.0 mph NE4.8 kmh NE -- 30.08 in1018.6 mb 0.00 in0.0 mm 0.00 in0.0 mm 0.00 in0.0 mm
01:30 PM 94.5°F34.7°C 78.0°F25.6°C 59% 4.0 mph ENE6.4 kmh ENE -- 30.08 in1018.6 mb 0.00 in0.0 mm 0.00 in0.0 mm 0.00 in0.0 mm
01:35 PM 93.9°F34.4°C 77.5°F25.3°C 59% 2.0 mph NE3.2 kmh NE -- 30.08 in1018.6 mb 0.00 in0.0 mm 0.00 in0.0 mm 0.00 in0.0 mm
01:40 PM 93.4°F34.1°C 77.5°F25.3°C 60% 4.0 mph ESE6.4 kmh ESE -- 30.08 in1018.6 mb 0.00 in0.0 mm 0.00 in0.0 mm 0.00 in0.0 mm
01:45 PM 91.2°F32.9°C 76.4°F24.7°C 62% 4.0 mph SSE6.4 kmh SSE -- 30.08 in1018.6 mb 0.00 in0.0 mm 0.00 in0.0 mm 0.00 in0.0 mm
01:50 PM 90.9°F32.7°C 76.6°F24.8°C 63% 6.0 mph ENE9.7 kmh ENE -- 30.07 in1018.3 mb 0.00 in0.0 mm 0.00 in0.0 mm 0.00 in0.0 mm
01:55 PM 90.7°F32.6°C 76.4°F24.7°C 63% 2.0 mph ESE3.2 kmh ESE -- 30.07 in1018.3 mb 0.00 in0.0 mm 0.00 in0.0 mm 0.00 in0.0 mm
02:00 PM 90.0°F32.2°C 76.7°F24.8°C 65% 5.0 mph SSE8.0 kmh SSE -- 30.07 in1018.3 mb 0.00 in0.0 mm 0.00 in0.0 mm 0.00 in0.0 mm
02:05 PM 91.9°F33.3°C 77.1°F25.1°C 62% 4.0 mph ENE6.4 kmh ENE -- 30.07 in1018.3 mb 0.00 in0.0 mm 0.00 in0.0 mm 0.00 in0.0 mm
02:10 PM 92.3°F33.5°C 77.0°F25.0°C 61% 6.0 mph ESE9.7 kmh ESE -- 30.07 in1018.3 mb 0.00 in0.0 mm 0.00 in0.0 mm 0.00 in0.0 mm
02:15 PM 91.9°F33.3°C 76.1°F24.5°C 60% 2.0 mph SSE3.2 kmh SSE -- 30.07 in1018.3 mb 0.00 in0.0 mm 0.00 in0.0 mm 0.00 in0.0 mm
02:20 PM 93.4°F34.1°C 77.0°F25.0°C 59% 7.0 mph ESE11.3 kmh ESE -- 30.07 in1018.3 mb 0.00 in0.0 mm 0.00 in0.0 mm 0.00 in0.0 mm
02:25 PM 92.1°F33.4°C 76.3°F24.6°C 60% 6.0 mph NNE9.7 kmh NNE -- 30.06 in1017.9 mb 0.00 in0.0 mm 0.00 in0.0 mm 0.00 in0.0 mm
02:30 PM 91.9°F33.3°C 76.6°F24.8°C 61% 5.0 mph ENE8.0 kmh ENE -- 30.06 in1017.9 mb 0.00 in0.0 mm 0.00 in0.0 mm 0.00 in0.0 mm
02:35 PM 91.6°F33.1°C 76.3°F24.6°C 61% 3.0 mph ENE4.8 kmh ENE -- 30.06 in1017.9 mb 0.00 in0.0 mm 0.00 in0.0 mm 0.00 in0.0 mm
02:40 PM 91.4°F33.0°C 76.1°F24.5°C 61% 5.0 mph ESE8.0 kmh ESE -- 30.06 in1017.9 mb 0.00 in0.0 mm 0.00 in0.0 mm 0.00 in0.0 mm
02:45 PM 91.8°F33.2°C 76.0°F24.4°C 60% 1.0 mph ESE1.6 kmh ESE -- 30.06 in1017.9 mb 0.00 in0.0 mm 0.00 in0.0 mm 0.00 in0.0 mm
02:50 PM 91.8°F33.2°C 76.5°F24.7°C 61% 10.0 mph ENE16.1 kmh ENE -- 30.06 in1017.9 mb 0.00 in0.0 mm 0.00 in0.0 mm 0.00 in0.0 mm
02:55 PM 91.8°F33.2°C 75.5°F24.2°C 59% 6.0 mph ESE9.7 kmh ESE -- 30.06 in1017.9 mb 0.00 in0.0 mm 0.00 in0.0 mm 0.00 in0.0 mm
03:00 PM 92.1°F33.4°C 75.3°F24.1°C 58% 2.0 mph E3.2 kmh E -- 30.06 in1017.9 mb 0.00 in0.0 mm 0.00 in0.0 mm 0.00 in0.0 mm
03:05 PM 92.3°F33.5°C 75.5°F24.2°C 58% 8.0 mph SSE12.9 kmh SSE -- 30.06 in1017.9 mb 0.00 in0.0 mm 0.00 in0.0 mm 0.00 in0.0 mm
03:10 PM 91.9°F33.3°C 75.6°F24.2°C 59% 5.0 mph SSW8.0 kmh SSW -- 30.06 in1017.9 mb 0.00 in0.0 mm 0.00 in0.0 mm 0.00 in0.0 mm
03:15 PM 91.2°F32.9°C 75.0°F23.9°C 59% 4.0 mph ESE6.4 kmh ESE -- 30.06 in1017.9 mb 0.00 in0.0 mm 0.00 in0.0 mm 0.00 in0.0 mm
03:20 PM 91.8°F33.2°C 75.5°F24.2°C 59% 5.0 mph ENE8.0 kmh ENE -- 30.06 in1017.9 mb 0.00 in0.0 mm 0.00 in0.0 mm 0.00 in0.0 mm
03:25 PM 91.4°F33.0°C 74.6°F23.7°C 58% 6.0 mph SSE9.7 kmh SSE -- 30.06 in1017.9 mb 0.00 in0.0 mm 0.00 in0.0 mm 0.00 in0.0 mm
03:30 PM 91.2°F32.9°C 74.4°F23.6°C 58% 6.0 mph ESE9.7 kmh ESE -- 30.06 in1017.9 mb 0.00 in0.0 mm 0.00 in0.0 mm 0.00 in0.0 mm
03:35 PM 91.0°F32.8°C 74.3°F23.5°C 58% 8.0 mph SSE12.9 kmh SSE -- 30.06 in1017.9 mb 0.00 in0.0 mm 0.00 in0.0 mm 0.00 in0.0 mm
03:40 PM 90.9°F32.7°C 74.1°F23.4°C 58% 9.0 mph SE14.5 kmh SE -- 30.06 in1017.9 mb 0.00 in0.0 mm 0.00 in0.0 mm 0.00 in0.0 mm
03:45 PM 90.3°F32.4°C 73.1°F22.8°C 57% 7.0 mph SE11.3 kmh SE -- 30.06 in1017.9 mb 0.00 in0.0 mm 0.00 in0.0 mm 0.00 in0.0 mm
03:50 PM 90.7°F32.6°C 73.4°F23.0°C 57% 2.0 mph ESE3.2 kmh ESE -- 30.06 in1017.9 mb 0.00 in0.0 mm 0.00 in0.0 mm 0.00 in0.0 mm
03:55 PM 90.5°F32.5°C 73.8°F23.2°C 58% 3.0 mph ESE4.8 kmh ESE -- 30.06 in1017.9 mb 0.00 in0.0 mm 0.00 in0.0 mm 0.00 in0.0 mm
04:00 PM 90.5°F32.5°C 73.2°F22.9°C 57% 4.0 mph ESE6.4 kmh ESE -- 30.06 in1017.9 mb 0.00 in0.0 mm 0.00 in0.0 mm 0.00 in0.0 mm
04:05 PM 90.1°F32.3°C 72.4°F22.4°C 56% 6.0 mph E9.7 kmh E -- 30.06 in1017.9 mb 0.00 in0.0 mm 0.00 in0.0 mm 0.00 in0.0 mm
04:10 PM 90.1°F32.3°C 72.4°F22.4°C 56% 3.0 mph ESE4.8 kmh ESE -- 30.06 in1017.9 mb 0.00 in0.0 mm 0.00 in0.0 mm 0.00 in0.0 mm
04:15 PM 89.4°F31.9°C 72.2°F22.3°C 57% 7.0 mph E11.3 kmh E -- 30.06 in1017.9 mb 0.00 in0.0 mm 0.00 in0.0 mm 0.00 in0.0 mm
04:20 PM 88.9°F31.6°C 72.2°F22.3°C 58% 7.0 mph E11.3 kmh E -- 30.06 in1017.9 mb 0.00 in0.0 mm 0.00 in0.0 mm 0.00 in0.0 mm
04:25 PM 89.2°F31.8°C 72.1°F22.3°C 57% 3.0 mph SE4.8 kmh SE -- 30.06 in1017.9 mb 0.00 in0.0 mm 0.00 in0.0 mm 0.00 in0.0 mm
04:30 PM 89.1°F31.7°C 71.9°F22.2°C 57% 7.0 mph ESE11.3 kmh ESE -- 30.06 in1017.9 mb 0.00 in0.0 mm 0.00 in0.0 mm 0.00 in0.0 mm
04:35 PM 89.1°F31.7°C 72.4°F22.4°C 58% 5.0 mph SE8.0 kmh SE -- 30.06 in1017.9 mb 0.00 in0.0 mm 0.00 in0.0 mm 0.00 in0.0 mm
04:40 PM 88.9°F31.6°C 73.2°F22.9°C 60% 3.0 mph ESE4.8 kmh ESE -- 30.06 in1017.9 mb 0.00 in0.0 mm 0.00 in0.0 mm 0.00 in0.0 mm
04:45 PM 89.1°F31.7°C 73.9°F23.3°C 61% 6.0 mph ESE9.7 kmh ESE -- 30.06 in1017.9 mb 0.00 in0.0 mm 0.00 in0.0 mm 0.00 in0.0 mm
04:50 PM 89.1°F31.7°C 73.9°F23.3°C 61% 5.0 mph SSE8.0 kmh SSE -- 30.07 in1018.3 mb 0.00 in0.0 mm 0.00 in0.0 mm 0.00 in0.0 mm
04:55 PM 88.3°F31.3°C 73.7°F23.2°C 62% 2.0 mph SSE3.2 kmh SSE -- 30.07 in1018.3 mb 0.00 in0.0 mm 0.00 in0.0 mm 0.00 in0.0 mm
05:00 PM 87.4°F30.8°C 74.3°F23.5°C 65% 6.0 mph NE9.7 kmh NE -- 30.06 in1017.9 mb 0.00 in0.0 mm 0.00 in0.0 mm 0.00 in0.0 mm
05:05 PM 87.1°F30.6°C 74.4°F23.6°C 66% 7.0 mph E11.3 kmh E -- 30.07 in1018.3 mb 0.00 in0.0 mm 0.00 in0.0 mm 0.00 in0.0 mm
05:10 PM 86.7°F30.4°C 74.5°F23.6°C 67% 4.0 mph E6.4 kmh E -- 30.07 in1018.3 mb 0.00 in0.0 mm 0.00 in0.0 mm 0.00 in0.0 mm
05:15 PM 86.0°F30.0°C 73.3°F22.9°C 66% 7.0 mph ESE11.3 kmh ESE -- 30.07 in1018.3 mb 0.00 in0.0 mm 0.00 in0.0 mm 0.00 in0.0 mm
05:20 PM 85.6°F29.8°C 74.3°F23.5°C 69% 5.0 mph ESE8.0 kmh ESE -- 30.07 in1018.3 mb 0.00 in0.0 mm 0.00 in0.0 mm 0.00 in0.0 mm
05:25 PM 85.3°F29.6°C 74.4°F23.6°C 70% 4.0 mph ESE6.4 kmh ESE -- 30.07 in1018.3 mb 0.00 in0.0 mm 0.00 in0.0 mm 0.00 in0.0 mm
05:30 PM 84.9°F29.4°C 74.5°F23.6°C 71% 4.0 mph ENE6.4 kmh ENE -- 30.08 in1018.6 mb 0.00 in0.0 mm 0.00 in0.0 mm 0.00 in0.0 mm
05:35 PM 84.6°F29.2°C 75.0°F23.9°C 73% 4.0 mph SSE6.4 kmh SSE -- 30.07 in1018.3 mb 0.00 in0.0 mm 0.00 in0.0 mm 0.00 in0.0 mm
05:40 PM 84.2°F29.0°C 75.0°F23.9°C 74% 5.0 mph ESE8.0 kmh ESE -- 30.08 in1018.6 mb 0.00 in0.0 mm 0.00 in0.0 mm 0.00 in0.0 mm
05:45 PM 83.8°F28.8°C 75.1°F23.9°C 75% 5.0 mph SSE8.0 kmh SSE -- 30.08 in1018.6 mb 0.00 in0.0 mm 0.00 in0.0 mm 0.00 in0.0 mm
05:50 PM 83.7°F28.7°C 75.3°F24.1°C 76% 4.0 mph SSE6.4 kmh SSE -- 30.08 in1018.6 mb 0.00 in0.0 mm 0.00 in0.0 mm 0.00 in0.0 mm
05:55 PM 83.3°F28.5°C 75.3°F24.1°C 77% 2.0 mph ENE3.2 kmh ENE -- 30.08 in1018.6 mb 0.00 in0.0 mm 0.00 in0.0 mm 0.00 in0.0 mm
06:00 PM 82.9°F28.3°C 75.0°F23.9°C 77% 4.0 mph ESE6.4 kmh ESE -- 30.09 in1019.0 mb 0.00 in0.0 mm 0.00 in0.0 mm 0.00 in0.0 mm
06:05 PM 82.6°F28.1°C 75.0°F23.9°C 78% 2.0 mph ESE3.2 kmh ESE -- 30.09 in1019.0 mb 0.00 in0.0 mm 0.00 in0.0 mm 0.00 in0.0 mm
06:10 PM 82.4°F28.0°C 75.2°F24.0°C 79% 2.0 mph ESE3.2 kmh ESE -- 30.08 in1018.6 mb 0.00 in0.0 mm 0.00 in0.0 mm 0.00 in0.0 mm
06:15 PM 82.2°F27.9°C 75.1°F23.9°C 79% 1.0 mph ESE1.6 kmh ESE -- 30.09 in1019.0 mb 0.00 in0.0 mm 0.00 in0.0 mm 0.00 in0.0 mm
06:20 PM 81.7°F27.6°C 75.3°F24.1°C 81% 2.0 mph E3.2 kmh E -- 30.09 in1019.0 mb 0.00 in0.0 mm 0.00 in0.0 mm 0.00 in0.0 mm
06:25 PM 81.5°F27.5°C 75.5°F24.2°C 82% 5.0 mph ESE8.0 kmh ESE -- 30.09 in1019.0 mb 0.00 in0.0 mm 0.00 in0.0 mm 0.00 in0.0 mm
06:30 PM 81.3°F27.4°C 75.3°F24.1°C 82% 1.0 mph E1.6 kmh E -- 30.09 in1019.0 mb 0.00 in0.0 mm 0.00 in0.0 mm 0.00 in0.0 mm
06:35 PM 81.1°F27.3°C 75.5°F24.2°C 83% 2.0 mph E3.2 kmh E -- 30.09 in1019.0 mb 0.00 in0.0 mm 0.00 in0.0 mm 0.00 in0.0 mm
06:40 PM 80.8°F27.1°C 75.1°F23.9°C 83% 4.0 mph ESE6.4 kmh ESE -- 30.09 in1019.0 mb 0.00 in0.0 mm 0.00 in0.0 mm 0.00 in0.0 mm
06:45 PM 80.6°F27.0°C 75.0°F23.9°C 83% 5.0 mph SSE8.0 kmh SSE -- 30.10 in1019.3 mb 0.00 in0.0 mm 0.00 in0.0 mm 0.00 in0.0 mm
06:50 PM 80.2°F26.8°C 74.6°F23.7°C 83% 8.0 mph E12.9 kmh E -- 30.10 in1019.3 mb 0.00 in0.0 mm 0.00 in0.0 mm 0.00 in0.0 mm
06:55 PM 80.2°F26.8°C 74.6°F23.7°C 83% Calm Calm -- 30.10 in1019.3 mb 0.00 in0.0 mm 0.00 in0.0 mm 0.00 in0.0 mm
07:00 PM 80.1°F26.7°C 74.4°F23.6°C 83% 1.0 mph ENE1.6 kmh ENE -- 30.10 in1019.3 mb 0.00 in0.0 mm 0.00 in0.0 mm 0.00 in0.0 mm
07:05 PM 80.1°F26.7°C 74.4°F23.6°C 83% 2.0 mph E3.2 kmh E -- 30.10 in1019.3 mb 0.00 in0.0 mm 0.00 in0.0 mm 0.00 in0.0 mm
07:10 PM 79.7°F26.5°C 74.1°F23.4°C 83% 3.0 mph SE4.8 kmh SE -- 30.10 in1019.3 mb 0.00 in0.0 mm 0.00 in0.0 mm 0.00 in0.0 mm
07:15 PM 79.7°F26.5°C 74.1°F23.4°C 83% 1.0 mph SE1.6 kmh SE -- 30.11 in1019.6 mb 0.00 in0.0 mm 0.00 in0.0 mm 0.00 in0.0 mm
07:20 PM 79.3°F26.3°C 74.1°F23.4°C 84% 3.0 mph ESE4.8 kmh ESE -- 30.11 in1019.6 mb 0.00 in0.0 mm 0.00 in0.0 mm 0.00 in0.0 mm
07:25 PM 79.3°F26.3°C 74.1°F23.4°C 84% 2.0 mph SE3.2 kmh SE -- 30.11 in1019.6 mb 0.00 in0.0 mm 0.00 in0.0 mm 0.00 in0.0 mm
07:30 PM 79.2°F26.2°C 73.9°F23.3°C 84% 1.0 mph ESE1.6 kmh ESE -- 30.11 in1019.6 mb 0.00 in0.0 mm 0.00 in0.0 mm 0.00 in0.0 mm
07:35 PM 78.8°F26.0°C 73.5°F23.1°C 84% 1.0 mph SE1.6 kmh SE -- 30.11 in1019.6 mb 0.00 in0.0 mm 0.00 in0.0 mm 0.00 in0.0 mm
07:40 PM 78.8°F26.0°C 73.5°F23.1°C 84% 1.0 mph SSE1.6 kmh SSE -- 30.11 in1019.6 mb 0.00 in0.0 mm 0.00 in0.0 mm 0.00 in0.0 mm
07:45 PM 78.8°F26.0°C 73.5°F23.1°C 84% 2.0 mph ESE3.2 kmh ESE -- 30.11 in1019.6 mb 0.00 in0.0 mm 0.00 in0.0 mm 0.00 in0.0 mm
07:50 PM 78.6°F25.9°C 73.4°F23.0°C 84% 2.0 mph ESE3.2 kmh ESE -- 30.11 in1019.6 mb 0.00 in0.0 mm 0.00 in0.0 mm 0.00 in0.0 mm
07:55 PM 78.3°F25.7°C 73.4°F23.0°C 85% 1.0 mph SE1.6 kmh SE -- 30.12 in1020.0 mb 0.00 in0.0 mm 0.00 in0.0 mm 0.00 in0.0 mm
08:00 PM 78.1°F25.6°C 73.2°F22.9°C 85% Calm Calm -- 30.11 in1019.6 mb 0.00 in0.0 mm 0.00 in0.0 mm 0.00 in0.0 mm
08:05 PM 78.1°F25.6°C 73.2°F22.9°C 85% Calm Calm -- 30.12 in1020.0 mb 0.00 in0.0 mm 0.00 in0.0 mm 0.00 in0.0 mm
08:10 PM 77.7°F25.4°C 73.2°F22.9°C 86% 2.0 mph ESE3.2 kmh ESE -- 30.11 in1019.6 mb 0.00 in0.0 mm 0.00 in0.0 mm 0.00 in0.0 mm
08:15 PM 77.7°F25.4°C 73.2°F22.9°C 86% Calm Calm -- 30.12 in1020.0 mb 0.00 in0.0 mm 0.00 in0.0 mm 0.00 in0.0 mm
08:20 PM 77.2°F25.1°C 72.7°F22.6°C 86% 2.0 mph ESE3.2 kmh ESE -- 30.12 in1020.0 mb 0.00 in0.0 mm 0.00 in0.0 mm 0.00 in0.0 mm
08:25 PM 77.2°F25.1°C 72.7°F22.6°C 86% Calm Calm -- 30.12 in1020.0 mb 0.00 in0.0 mm 0.00 in0.0 mm 0.00 in0.0 mm
08:30 PM 77.2°F25.1°C 72.7°F22.6°C 86% Calm Calm -- 30.12 in1020.0 mb 0.00 in0.0 mm 0.00 in0.0 mm 0.00 in0.0 mm
08:35 PM 76.8°F24.9°C 72.6°F22.6°C 87% Calm Calm -- 30.12 in1020.0 mb 0.00 in0.0 mm 0.00 in0.0 mm 0.00 in0.0 mm
08:40 PM 76.8°F24.9°C 72.6°F22.6°C 87% Calm Calm -- 30.12 in1020.0 mb 0.00 in0.0 mm 0.00 in0.0 mm 0.00 in0.0 mm
08:45 PM 76.5°F24.7°C 72.6°F22.6°C 88% Calm Calm -- 30.12 in1020.0 mb 0.00 in0.0 mm 0.00 in0.0 mm 0.00 in0.0 mm
08:50 PM 76.3°F24.6°C 72.5°F22.5°C 88% Calm Calm -- 30.13 in1020.3 mb 0.00 in0.0 mm 0.00 in0.0 mm 0.00 in0.0 mm
08:55 PM 76.1°F24.5°C 72.3°F22.4°C 88% Calm Calm -- 30.13 in1020.3 mb 0.00 in0.0 mm 0.00 in0.0 mm 0.00 in0.0 mm
09:00 PM 75.9°F24.4°C 72.1°F22.3°C 88% Calm Calm -- 30.13 in1020.3 mb 0.00 in0.0 mm 0.00 in0.0 mm 0.00 in0.0 mm
09:05 PM 75.6°F24.2°C 71.7°F22.1°C 88% Calm Calm -- 30.13 in1020.3 mb 0.00 in0.0 mm 0.00 in0.0 mm 0.00 in0.0 mm
09:10 PM 75.4°F24.1°C 71.9°F22.2°C 89% Calm Calm -- 30.13 in1020.3 mb 0.00 in0.0 mm 0.00 in0.0 mm 0.00 in0.0 mm
09:15 PM 75.2°F24.0°C 71.7°F22.1°C 89% Calm Calm -- 30.13 in1020.3 mb 0.00 in0.0 mm 0.00 in0.0 mm 0.00 in0.0 mm
09:20 PM 74.8°F23.8°C 71.7°F22.1°C 90% Calm Calm -- 30.13 in1020.3 mb 0.00 in0.0 mm 0.00 in0.0 mm 0.00 in0.0 mm
09:25 PM 74.8°F23.8°C 71.7°F22.1°C 90% Calm Calm -- 30.14 in1020.7 mb 0.00 in0.0 mm 0.00 in0.0 mm 0.00 in0.0 mm
09:30 PM 74.7°F23.7°C 71.5°F21.9°C 90% Calm Calm -- 30.14 in1020.7 mb 0.00 in0.0 mm 0.00 in0.0 mm 0.00 in0.0 mm
09:35 PM 74.5°F23.6°C 71.7°F22.1°C 91% Calm Calm -- 30.14 in1020.7 mb 0.00 in0.0 mm 0.00 in0.0 mm 0.00 in0.0 mm
09:40 PM 74.3°F23.5°C 71.5°F21.9°C 91% Calm Calm -- 30.14 in1020.7 mb 0.00 in0.0 mm 0.00 in0.0 mm 0.00 in0.0 mm
09:45 PM 74.1°F23.4°C 71.6°F22.0°C 92% Calm Calm -- 30.14 in1020.7 mb 0.00 in0.0 mm 0.00 in0.0 mm 0.00 in0.0 mm
10:00 PM 74.1°F23.4°C 71.6°F22.0°C 92% Calm Calm -- 30.15 in1021.0 mb 0.00 in0.0 mm 0.00 in0.0 mm 0.00 in0.0 mm
10:30 PM 73.9°F23.3°C 71.5°F21.9°C 92% Calm Calm -- 30.15 in1021.0 mb 0.00 in0.0 mm 0.00 in0.0 mm 0.00 in0.0 mm
10:40 PM 73.8°F23.2°C 71.3°F21.8°C 92% Calm Calm -- 30.15 in1021.0 mb 0.00 in0.0 mm 0.00 in0.0 mm 0.00 in0.0 mm
10:45 PM 73.4°F23.0°C 70.9°F21.6°C 92% Calm Calm -- 30.16 in1021.3 mb 0.00 in0.0 mm 0.00 in0.0 mm 0.00 in0.0 mm
10:50 PM 73.2°F22.9°C 70.7°F21.5°C 92% Calm Calm -- 30.15 in1021.0 mb 0.00 in0.0 mm 0.00 in0.0 mm 0.00 in0.0 mm
10:55 PM 73.0°F22.8°C 70.6°F21.4°C 92% Calm Calm -- 30.15 in1021.0 mb 0.00 in0.0 mm 0.00 in0.0 mm 0.00 in0.0 mm
11:10 PM 72.9°F22.7°C 70.4°F21.3°C 92% Calm Calm -- 30.15 in1021.0 mb 0.00 in0.0 mm 0.00 in0.0 mm 0.00 in0.0 mm
11:20 PM 72.7°F22.6°C 70.2°F21.2°C 92% Calm Calm -- 30.15 in1021.0 mb 0.00 in0.0 mm 0.00 in0.0 mm 0.00 in0.0 mm
11:25 PM 72.7°F22.6°C 70.5°F21.4°C 93% Calm Calm -- 30.15 in1021.0 mb 0.00 in0.0 mm 0.00 in0.0 mm 0.00 in0.0 mm
11:30 PM 72.5°F22.5°C 70.4°F21.3°C 93% Calm Calm -- 30.14 in1020.7 mb 0.00 in0.0 mm 0.00 in0.0 mm 0.00 in0.0 mm
11:40 PM 72.3°F22.4°C 70.2°F21.2°C 93% Calm Calm -- 30.14 in1020.7 mb 0.00 in0.0 mm 0.00 in0.0 mm 0.00 in0.0 mm
11:50 PM 72.1°F22.3°C 70.0°F21.1°C 93% Calm Calm -- 30.14 in1020.7 mb 0.00 in0.0 mm 0.00 in0.0 mm 0.00 in0.0 mm
11:55 PM 72.1°F22.3°C 70.3°F21.3°C 94% Calm Calm -- 30.14 in1020.7 mb 0.00 in0.0 mm 0.00 in0.0 mm 0.00 in0.0 mm